sensor_id;sensor_type;location;lat;lon;timestamp;pressure;altitude;pressure_sealevel;temperature;humidity
46506;BME280;32220;49.808;9.968;2023-08-08T00:00:48;98901.09;;;14.80;81.33
46506;BME280;32220;49.808;9.968;2023-08-08T00:03:16;98914.03;;;14.84;81.56
46506;BME280;32220;49.808;9.968;2023-08-08T00:05:43;98901.09;;;14.80;81.57
46506;BME280;32220;49.808;9.968;2023-08-08T00:08:11;98901.31;;;14.77;81.97
46506;BME280;32220;49.808;9.968;2023-08-08T00:10:38;98911.38;;;14.84;81.84
46506;BME280;32220;49.808;9.968;2023-08-08T00:13:06;98903.00;;;14.78;82.17
46506;BME280;32220;49.808;9.968;2023-08-08T00:15:33;98915.16;;;14.82;81.98
46506;BME280;32220;49.808;9.968;2023-08-08T00:18:03;98904.72;;;14.79;81.87
46506;BME280;32220;49.808;9.968;2023-08-08T00:20:31;98911.25;;;14.74;83.37
46506;BME280;32220;49.808;9.968;2023-08-08T00:22:59;98900.13;;;14.69;83.66
46506;BME280;32220;49.808;9.968;2023-08-08T00:25:27;98898.88;;;14.62;83.73
46506;BME280;32220;49.808;9.968;2023-08-08T00:27:54;98887.38;;;14.62;83.38
46506;BME280;32220;49.808;9.968;2023-08-08T00:30:22;98897.19;;;14.61;83.33
46506;BME280;32220;49.808;9.968;2023-08-08T00:32:49;98884.81;;;14.60;83.43
46506;BME280;32220;49.808;9.968;2023-08-08T00:35:18;98884.81;;;14.60;83.16
46506;BME280;32220;49.808;9.968;2023-08-08T00:37:46;98879.75;;;14.57;82.75
46506;BME280;32220;49.808;9.968;2023-08-08T00:40:14;98883.84;;;14.61;83.00
46506;BME280;32220;49.808;9.968;2023-08-08T00:42:41;98893.09;;;14.68;82.79
46506;BME280;32220;49.808;9.968;2023-08-08T00:45:09;98878.63;;;14.60;83.34
46506;BME280;32220;49.808;9.968;2023-08-08T00:47:37;98878.53;;;14.61;83.25
46506;BME280;32220;49.808;9.968;2023-08-08T00:50:06;98876.72;;;14.62;83.64
46506;BME280;32220;49.808;9.968;2023-08-08T00:52:35;98858.16;;;14.49;83.63
46506;BME280;32220;49.808;9.968;2023-08-08T00:55:05;98868.13;;;14.58;83.38
46506;BME280;32220;49.808;9.968;2023-08-08T00:57:34;98887.75;;;14.68;83.72
46506;BME280;32220;49.808;9.968;2023-08-08T01:00:05;98877.44;;;14.64;82.99
46506;BME280;32220;49.808;9.968;2023-08-08T01:02:33;98866.91;;;14.62;83.37
46506;BME280;32220;49.808;9.968;2023-08-08T01:05:02;98878.66;;;14.71;82.90
46506;BME280;32220;49.808;9.968;2023-08-08T01:07:36;98859.63;;;14.64;83.18
46506;BME280;32220;49.808;9.968;2023-08-08T01:10:09;98873.19;;;14.72;83.12
46506;BME280;32220;49.808;9.968;2023-08-08T01:12:40;98862.19;;;14.66;82.99
46506;BME280;32220;49.808;9.968;2023-08-08T01:15:10;98877.44;;;14.75;82.80
46506;BME280;32220;49.808;9.968;2023-08-08T01:17:39;98880.00;;;14.77;82.95
46506;BME280;32220;49.808;9.968;2023-08-08T01:20:08;98863.88;;;14.67;82.46
46506;BME280;32220;49.808;9.968;2023-08-08T01:22:45;98863.66;;;14.70;82.46
46506;BME280;32220;49.808;9.968;2023-08-08T01:25:17;98849.94;;;14.63;82.79
46506;BME280;32220;49.808;9.968;2023-08-08T01:27:45;98832.63;;;14.58;82.79
46506;BME280;32220;49.808;9.968;2023-08-08T01:30:13;98862.53;;;14.72;82.64
46506;BME280;32220;49.808;9.968;2023-08-08T01:32:41;98855.38;;;14.73;82.80
46506;BME280;32220;49.808;9.968;2023-08-08T01:35:08;98872.09;;;14.86;82.90
46506;BME280;32220;49.808;9.968;2023-08-08T01:37:40;98860.13;;;14.81;82.95
46506;BME280;32220;49.808;9.968;2023-08-08T01:40:10;98861.56;;;14.85;83.24
46506;BME280;32220;49.808;9.968;2023-08-08T01:42:41;98853.56;;;14.85;83.19
46506;BME280;32220;49.808;9.968;2023-08-08T01:45:11;98844.03;;;14.71;83.45
46506;BME280;32220;49.808;9.968;2023-08-08T01:47:39;98860.13;;;14.81;83.03
46506;BME280;32220;49.808;9.968;2023-08-08T01:50:08;98848.50;;;14.70;83.13
46506;BME280;32220;49.808;9.968;2023-08-08T01:52:36;98856.72;;;14.67;83.21
46506;BME280;32220;49.808;9.968;2023-08-08T01:55:04;98850.66;;;14.65;83.34
46506;BME280;32220;49.808;9.968;2023-08-08T01:57:32;98838.31;;;14.53;83.24
46506;BME280;32220;49.808;9.968;2023-08-08T02:00:01;98866.88;;;14.73;83.19
46506;BME280;32220;49.808;9.968;2023-08-08T02:02:41;98870.41;;;14.74;83.11
46506;BME280;32220;49.808;9.968;2023-08-08T02:05:09;98863.25;;;14.63;82.95
46506;BME280;32220;49.808;9.968;2023-08-08T02:07:37;98861.69;;;14.72;82.73
46506;BME280;32220;49.808;9.968;2023-08-08T02:10:04;98849.81;;;14.65;82.86
46506;BME280;32220;49.808;9.968;2023-08-08T02:12:32;98849.22;;;14.61;82.78
46506;BME280;32220;49.808;9.968;2023-08-08T02:15:01;98848.97;;;14.53;82.82
46506;BME280;32220;49.808;9.968;2023-08-08T02:17:30;98839.50;;;14.49;82.43
46506;BME280;32220;49.808;9.968;2023-08-08T02:19:57;98852.38;;;14.55;82.84
46506;BME280;32220;49.808;9.968;2023-08-08T02:22:25;98837.22;;;14.45;83.02
46506;BME280;32220;49.808;9.968;2023-08-08T02:24:52;98812.59;;;14.30;83.03
46506;BME280;32220;49.808;9.968;2023-08-08T02:27:20;98832.03;;;14.43;82.92
46506;BME280;32220;49.808;9.968;2023-08-08T02:29:47;98848.25;;;14.51;82.50
46506;BME280;32220;49.808;9.968;2023-08-08T02:32:16;98852.59;;;14.52;82.51
46506;BME280;32220;49.808;9.968;2023-08-08T02:34:44;98847.50;;;14.49;82.69
46506;BME280;32220;49.808;9.968;2023-08-08T02:37:12;98843.63;;;14.42;82.75
46506;BME280;32220;49.808;9.968;2023-08-08T02:39:41;98835.13;;;14.37;82.73
46506;BME280;32220;49.808;9.968;2023-08-08T02:42:08;98847.28;;;14.41;83.00
46506;BME280;32220;49.808;9.968;2023-08-08T02:44:36;98830.75;;;14.25;82.57
46506;BME280;32220;49.808;9.968;2023-08-08T02:47:04;98850.00;;;14.28;82.71
46506;BME280;32220;49.808;9.968;2023-08-08T02:49:33;98855.94;;;14.21;82.69
46506;BME280;32220;49.808;9.968;2023-08-08T02:52:01;98861.00;;;14.24;82.35
46506;BME280;32220;49.808;9.968;2023-08-08T02:54:32;98847.44;;;14.16;82.34
46506;BME280;32220;49.808;9.968;2023-08-08T02:57:00;98858.22;;;14.25;82.37
46506;BME280;32220;49.808;9.968;2023-08-08T02:59:28;98841.38;;;14.14;82.24
46506;BME280;32220;49.808;9.968;2023-08-08T03:01:56;98857.63;;;14.22;82.06
46506;BME280;32220;49.808;9.968;2023-08-08T03:04:24;98844.28;;;14.11;82.22
46506;BME280;32220;49.808;9.968;2023-08-08T03:06:52;98856.19;;;14.18;82.34
46506;BME280;32220;49.808;9.968;2023-08-08T03:09:20;98852.78;;;14.16;82.03
46506;BME280;32220;49.808;9.968;2023-08-08T03:11:48;98855.31;;;14.17;81.91
46506;BME280;32220;49.808;9.968;2023-08-08T03:14:16;98832.19;;;14.07;82.18
46506;BME280;32220;49.808;9.968;2023-08-08T03:16:44;98830.50;;;14.06;81.91
46506;BME280;32220;49.808;9.968;2023-08-08T03:19:12;98837.50;;;14.07;82.15
46506;BME280;32220;49.808;9.968;2023-08-08T03:21:40;98853.00;;;14.13;82.26
46506;BME280;32220;49.808;9.968;2023-08-08T03:24:09;98828.41;;;13.98;82.25
46506;BME280;32220;49.808;9.968;2023-08-08T03:26:37;98849.59;;;14.11;82.07
46506;BME280;32220;49.808;9.968;2023-08-08T03:29:04;98818.13;;;13.93;81.96
46506;BME280;32220;49.808;9.968;2023-08-08T03:31:39;98847.56;;;14.14;82.36
46506;BME280;32220;49.808;9.968;2023-08-08T03:34:07;98848.53;;;14.13;81.95
46506;BME280;32220;49.808;9.968;2023-08-08T03:36:35;98842.59;;;14.10;81.86
46506;BME280;32220;49.808;9.968;2023-08-08T03:39:06;98838.72;;;14.14;81.57
46506;BME280;32220;49.808;9.968;2023-08-08T03:41:36;98841.03;;;14.18;81.56
46506;BME280;32220;49.808;9.968;2023-08-08T03:44:04;98851.31;;;14.23;81.54
46506;BME280;32220;49.808;9.968;2023-08-08T03:46:31;98847.97;;;14.32;82.26
46506;BME280;32220;49.808;9.968;2023-08-08T03:48:59;98866.97;;;14.38;81.65
46506;BME280;32220;49.808;9.968;2023-08-08T03:51:27;98850.63;;;14.32;81.51
46506;BME280;32220;49.808;9.968;2023-08-08T03:53:55;98848.31;;;14.38;81.28
46506;BME280;32220;49.808;9.968;2023-08-08T03:56:23;98850.06;;;14.40;81.31
46506;BME280;32220;49.808;9.968;2023-08-08T03:58:52;98864.84;;;14.44;81.57
46506;BME280;32220;49.808;9.968;2023-08-08T04:01:19;98870.50;;;14.39;81.34
46506;BME280;32220;49.808;9.968;2023-08-08T04:03:47;98861.63;;;14.27;81.71
46506;BME280;32220;49.808;9.968;2023-08-08T04:06:15;98847.44;;;14.16;81.84
46506;BME280;32220;49.808;9.968;2023-08-08T04:08:42;98864.16;;;14.18;81.67
46506;BME280;32220;49.808;9.968;2023-08-08T04:11:10;98867.28;;;14.12;81.86
46506;BME280;32220;49.808;9.968;2023-08-08T04:13:37;98859.28;;;14.00;82.08
46506;BME280;32220;49.808;9.968;2023-08-08T04:16:06;98851.38;;;13.88;82.02
46506;BME280;32220;49.808;9.968;2023-08-08T04:18:34;98864.47;;;13.91;82.16
46506;BME280;32220;49.808;9.968;2023-08-08T04:21:01;98853.88;;;13.78;82.58
46506;BME280;32220;49.808;9.968;2023-08-08T04:23:29;98806.84;;;13.44;82.91
46506;BME280;32220;49.808;9.968;2023-08-08T04:25:56;98844.78;;;13.70;82.98
46506;BME280;32220;49.808;9.968;2023-08-08T04:28:23;98855.06;;;13.74;82.96
46506;BME280;32220;49.808;9.968;2023-08-08T04:30:51;98851.41;;;13.64;83.43
46506;BME280;32220;49.808;9.968;2023-08-08T04:33:20;98857.25;;;13.69;83.35
46506;BME280;32220;49.808;9.968;2023-08-08T04:35:47;98861.34;;;13.73;83.43
46506;BME280;32220;49.808;9.968;2023-08-08T04:38:15;98864.88;;;13.74;83.34
46506;BME280;32220;49.808;9.968;2023-08-08T04:40:42;98850.97;;;13.70;83.39
46506;BME280;32220;49.808;9.968;2023-08-08T04:43:10;98858.25;;;13.79;83.46
46506;BME280;32220;49.808;9.968;2023-08-08T04:45:38;98834.75;;;13.73;83.44
46506;BME280;32220;49.808;9.968;2023-08-08T04:48:05;98835.16;;;13.80;83.62
46506;BME280;32220;49.808;9.968;2023-08-08T04:50:34;98816.84;;;13.75;83.21
46506;BME280;32220;49.808;9.968;2023-08-08T04:53:02;98857.75;;;14.09;82.89
46506;BME280;32220;49.808;9.968;2023-08-08T04:55:29;98850.34;;;14.13;82.82
46506;BME280;32220;49.808;9.968;2023-08-08T04:57:57;98840.19;;;14.18;82.65
46506;BME280;32220;49.808;9.968;2023-08-08T05:00:26;98849.66;;;14.33;82.29
46506;BME280;32220;49.808;9.968;2023-08-08T05:02:53;98855.16;;;14.43;82.10
46506;BME280;32220;49.808;9.968;2023-08-08T05:05:21;98858.06;;;14.51;81.81
46506;BME280;32220;49.808;9.968;2023-08-08T05:07:50;98842.91;;;14.51;81.42
46506;BME280;32220;49.808;9.968;2023-08-08T05:10:17;98845.81;;;14.59;81.42
46506;BME280;32220;49.808;9.968;2023-08-08T05:12:45;98838.81;;;14.69;80.92
46506;BME280;32220;49.808;9.968;2023-08-08T05:15:12;98840.13;;;14.75;80.79
46506;BME280;32220;49.808;9.968;2023-08-08T05:17:40;98855.50;;;14.94;80.40
46506;BME280;32220;49.808;9.968;2023-08-08T05:20:08;98842.53;;;14.89;80.31
46506;BME280;32220;49.808;9.968;2023-08-08T05:22:36;98830.78;;;14.92;80.39
46506;BME280;32220;49.808;9.968;2023-08-08T05:25:09;98855.59;;;15.15;79.89
46506;BME280;32220;49.808;9.968;2023-08-08T05:27:36;98844.19;;;15.13;79.36
46506;BME280;32220;49.808;9.968;2023-08-08T05:30:05;98828.38;;;15.21;79.49
46506;BME280;32220;49.808;9.968;2023-08-08T05:32:33;98843.44;;;15.33;79.13
46506;BME280;32220;49.808;9.968;2023-08-08T05:35:00;98853.91;;;15.45;78.72
46506;BME280;32220;49.808;9.968;2023-08-08T05:37:30;98853.41;;;15.52;78.60
46506;BME280;32220;49.808;9.968;2023-08-08T05:39:57;98823.31;;;15.50;78.35
46506;BME280;32220;49.808;9.968;2023-08-08T05:42:26;98849.25;;;15.70;78.12
46506;BME280;32220;49.808;9.968;2023-08-08T05:44:54;98853.81;;;15.79;78.14
46506;BME280;32220;49.808;9.968;2023-08-08T05:47:21;98827.97;;;15.79;77.66
46506;BME280;32220;49.808;9.968;2023-08-08T05:49:49;98852.00;;;16.00;77.61
46506;BME280;32220;49.808;9.968;2023-08-08T05:52:16;98836.44;;;16.05;77.26
46506;BME280;32220;49.808;9.968;2023-08-08T05:54:44;98858.09;;;16.33;76.79
46506;BME280;32220;49.808;9.968;2023-08-08T05:57:11;98848.63;;;16.49;76.25
46506;BME280;32220;49.808;9.968;2023-08-08T05:59:40;98851.59;;;16.67;76.01
46506;BME280;32220;49.808;9.968;2023-08-08T06:02:10;98854.41;;;16.75;75.37
46506;BME280;32220;49.808;9.968;2023-08-08T06:04:38;98844.00;;;16.82;74.70
46506;BME280;32220;49.808;9.968;2023-08-08T06:07:05;98846.88;;;16.90;74.52
46506;BME280;32220;49.808;9.968;2023-08-08T06:09:33;98849.59;;;17.00;74.66
46506;BME280;32220;49.808;9.968;2023-08-08T06:12:03;98852.84;;;17.13;74.67
46506;BME280;32220;49.808;9.968;2023-08-08T06:14:31;98841.88;;;17.16;74.36
46506;BME280;32220;49.808;9.968;2023-08-08T06:16:59;98856.00;;;17.37;74.45
46506;BME280;32220;49.808;9.968;2023-08-08T06:19:27;98859.69;;;17.55;72.64
46506;BME280;32220;49.808;9.968;2023-08-08T06:21:54;98850.13;;;17.72;71.68
46506;BME280;32220;49.808;9.968;2023-08-08T06:24:22;98862.25;;;17.86;70.78
46506;BME280;32220;49.808;9.968;2023-08-08T06:26:50;98859.16;;;18.00;70.70
46506;BME280;32220;49.808;9.968;2023-08-08T06:29:17;98851.66;;;18.13;69.95
46506;BME280;32220;49.808;9.968;2023-08-08T06:31:44;98855.75;;;18.27;69.15
46506;BME280;32220;49.808;9.968;2023-08-08T06:34:13;98862.88;;;18.46;68.10
46506;BME280;32220;49.808;9.968;2023-08-08T06:36:41;98858.16;;;18.77;66.71
46506;BME280;32220;49.808;9.968;2023-08-08T06:39:08;98859.59;;;19.26;64.10
46506;BME280;32220;49.808;9.968;2023-08-08T06:41:37;98882.09;;;19.88;61.45
46506;BME280;32220;49.808;9.968;2023-08-08T06:44:07;98877.88;;;20.47;60.44
46506;BME280;32220;49.808;9.968;2023-08-08T06:46:35;98903.00;;;20.81;59.10
46506;BME280;32220;49.808;9.968;2023-08-08T06:49:02;98893.50;;;20.69;59.36
46506;BME280;32220;49.808;9.968;2023-08-08T06:51:31;98895.06;;;20.54;58.91
46506;BME280;32220;49.808;9.968;2023-08-08T06:53:59;98871.59;;;20.20;57.83
46506;BME280;32220;49.808;9.968;2023-08-08T06:56:26;98883.22;;;20.21;57.82
46506;BME280;32220;49.808;9.968;2023-08-08T06:58:54;98887.91;;;20.19;58.69
46506;BME280;32220;49.808;9.968;2023-08-08T07:01:21;98889.22;;;20.15;59.17
46506;BME280;32220;49.808;9.968;2023-08-08T07:03:49;98881.91;;;20.07;59.70
46506;BME280;32220;49.808;9.968;2023-08-08T07:06:17;98886.25;;;20.00;58.67
46506;BME280;32220;49.808;9.968;2023-08-08T07:08:46;98884.25;;;20.02;58.30
46506;BME280;32220;49.808;9.968;2023-08-08T07:11:14;98880.63;;;20.11;59.51
46506;BME280;32220;49.808;9.968;2023-08-08T07:13:41;98866.03;;;20.14;59.33
46506;BME280;32220;49.808;9.968;2023-08-08T07:16:09;98881.13;;;20.32;58.50
46506;BME280;32220;49.808;9.968;2023-08-08T07:18:36;98862.84;;;20.36;59.14
46506;BME280;32220;49.808;9.968;2023-08-08T07:21:04;98862.06;;;20.43;58.67
46506;BME280;32220;49.808;9.968;2023-08-08T07:23:32;98873.94;;;20.59;58.10
46506;BME280;32220;49.808;9.968;2023-08-08T07:26:01;98847.28;;;20.48;57.88
46506;BME280;32220;49.808;9.968;2023-08-08T07:28:28;98852.72;;;20.56;57.29
46506;BME280;32220;49.808;9.968;2023-08-08T07:30:55;98869.97;;;20.71;57.08
46506;BME280;32220;49.808;9.968;2023-08-08T07:33:23;98874.75;;;20.85;56.40
46506;BME280;32220;49.808;9.968;2023-08-08T07:35:51;98881.25;;;21.00;55.17
46506;BME280;32220;49.808;9.968;2023-08-08T07:38:18;98877.59;;;21.17;56.08
46506;BME280;32220;49.808;9.968;2023-08-08T07:40:45;98867.44;;;21.37;55.83
46506;BME280;32220;49.808;9.968;2023-08-08T07:43:15;98885.63;;;21.51;54.76
46506;BME280;32220;49.808;9.968;2023-08-08T07:45:43;98884.44;;;21.38;53.97
46506;BME280;32220;49.808;9.968;2023-08-08T07:48:10;98881.00;;;21.20;53.36
46506;BME280;32220;49.808;9.968;2023-08-08T07:50:38;98883.81;;;21.10;53.46
46506;BME280;32220;49.808;9.968;2023-08-08T07:53:05;98875.31;;;21.31;52.77
46506;BME280;32220;49.808;9.968;2023-08-08T07:55:33;98894.94;;;21.57;51.53
46506;BME280;32220;49.808;9.968;2023-08-08T07:58:00;98887.56;;;21.75;50.49
46506;BME280;32220;49.808;9.968;2023-08-08T08:00:29;98908.84;;;22.03;49.44
46506;BME280;32220;49.808;9.968;2023-08-08T08:02:57;98902.97;;;22.24;49.35
46506;BME280;32220;49.808;9.968;2023-08-08T08:05:24;98896.06;;;22.37;50.14
46506;BME280;32220;49.808;9.968;2023-08-08T08:07:51;98908.34;;;22.56;48.36
46506;BME280;32220;49.808;9.968;2023-08-08T08:10:19;98905.06;;;23.01;47.84
46506;BME280;32220;49.808;9.968;2023-08-08T08:12:46;98898.03;;;23.31;46.07
46506;BME280;32220;49.808;9.968;2023-08-08T08:15:14;98918.22;;;23.59;46.28
46506;BME280;32220;49.808;9.968;2023-08-08T08:17:43;98895.38;;;23.62;45.85
46506;BME280;32220;49.808;9.968;2023-08-08T08:20:10;98918.31;;;23.97;46.10
46506;BME280;32220;49.808;9.968;2023-08-08T08:22:38;98921.28;;;24.33;45.77
46506;BME280;32220;49.808;9.968;2023-08-08T08:25:06;98926.13;;;24.23;44.11
46506;BME280;32220;49.808;9.968;2023-08-08T08:27:35;98922.59;;;24.37;44.85
46506;BME280;32220;49.808;9.968;2023-08-08T08:30:04;98913.13;;;24.93;43.94
46506;BME280;32220;49.808;9.968;2023-08-08T08:32:32;98922.56;;;25.12;42.64
46506;BME280;32220;49.808;9.968;2023-08-08T08:35:02;98922.97;;;25.74;42.68
46506;BME280;32220;49.808;9.968;2023-08-08T08:37:32;98905.72;;;25.61;42.36
46506;BME280;32220;49.808;9.968;2023-08-08T08:40:00;98924.53;;;26.41;40.24
46506;BME280;32220;49.808;9.968;2023-08-08T08:42:28;98914.72;;;26.40;40.50
46506;BME280;32220;49.808;9.968;2023-08-08T08:44:57;98919.31;;;27.23;39.23
46506;BME280;32220;49.808;9.968;2023-08-08T08:47:25;98930.59;;;27.20;38.03
46506;BME280;32220;49.808;9.968;2023-08-08T08:49:57;98941.78;;;27.04;36.47
46506;BME280;32220;49.808;9.968;2023-08-08T08:52:26;98927.56;;;27.02;38.42
46506;BME280;32220;49.808;9.968;2023-08-08T08:54:54;98929.88;;;27.05;38.66
46506;BME280;32220;49.808;9.968;2023-08-08T08:57:22;98918.88;;;26.92;37.80
46506;BME280;32220;49.808;9.968;2023-08-08T08:59:50;98931.38;;;27.07;37.38
46506;BME280;32220;49.808;9.968;2023-08-08T09:02:18;98923.97;;;27.29;38.12
46506;BME280;32220;49.808;9.968;2023-08-08T09:04:46;98920.81;;;27.67;37.38
46506;BME280;32220;49.808;9.968;2023-08-08T09:07:18;98937.06;;;28.14;36.94
46506;BME280;32220;49.808;9.968;2023-08-08T09:09:48;98940.75;;;28.87;35.60
46506;BME280;32220;49.808;9.968;2023-08-08T09:12:16;98948.56;;;29.61;33.80
46506;BME280;32220;49.808;9.968;2023-08-08T09:14:43;98942.69;;;30.09;32.21
46506;BME280;32220;49.808;9.968;2023-08-08T09:17:12;98951.28;;;31.00;31.10
46506;BME280;32220;49.808;9.968;2023-08-08T09:19:42;98957.00;;;32.68;30.15
46506;BME280;32220;49.808;9.968;2023-08-08T09:22:10;98974.41;;;34.59;26.81
46506;BME280;32220;49.808;9.968;2023-08-08T09:24:39;98979.31;;;36.23;25.05
46506;BME280;32220;49.808;9.968;2023-08-08T09:27:09;98981.72;;;36.95;23.61
46506;BME280;32220;49.808;9.968;2023-08-08T09:29:37;98980.59;;;36.37;22.97
46506;BME280;32220;49.808;9.968;2023-08-08T09:32:05;98969.94;;;35.97;23.42
46506;BME280;32220;49.808;9.968;2023-08-08T09:34:33;98954.88;;;35.44;24.79
46506;BME280;32220;49.808;9.968;2023-08-08T09:37:01;98952.19;;;34.94;25.36
46506;BME280;32220;49.808;9.968;2023-08-08T09:39:29;98932.38;;;34.64;25.22
46506;BME280;32220;49.808;9.968;2023-08-08T09:41:56;98924.75;;;34.37;25.99
46506;BME280;32220;49.808;9.968;2023-08-08T09:44:26;98923.41;;;34.23;26.22
46506;BME280;32220;49.808;9.968;2023-08-08T09:46:55;98907.09;;;34.05;26.26
46506;BME280;32220;49.808;9.968;2023-08-08T09:49:23;98924.81;;;33.57;25.74
46506;BME280;32220;49.808;9.968;2023-08-08T09:51:53;98913.50;;;33.07;26.26
46506;BME280;32220;49.808;9.968;2023-08-08T09:54:44;98884.81;;;32.33;26.25
46506;BME280;32220;49.808;9.968;2023-08-08T09:57:14;98915.44;;;32.00;26.49
46506;BME280;32220;49.808;9.968;2023-08-08T09:59:43;98914.56;;;31.33;26.50
46506;BME280;32220;49.808;9.968;2023-08-08T10:02:14;98904.59;;;30.77;26.73
46506;BME280;32220;49.808;9.968;2023-08-08T10:04:43;98901.09;;;30.39;26.97
46506;BME280;32220;49.808;9.968;2023-08-08T10:07:11;98915.44;;;30.34;28.06
46506;BME280;32220;49.808;9.968;2023-08-08T10:09:39;98910.81;;;30.03;27.84
46506;BME280;32220;49.808;9.968;2023-08-08T10:12:07;98917.50;;;29.62;28.05
46506;BME280;32220;49.808;9.968;2023-08-08T10:14:36;98917.34;;;29.44;28.62
46506;BME280;32220;49.808;9.968;2023-08-08T10:17:07;98893.13;;;29.03;29.20
46506;BME280;32220;49.808;9.968;2023-08-08T10:19:34;98900.88;;;29.00;29.97
46506;BME280;32220;49.808;9.968;2023-08-08T10:22:03;98885.81;;;28.90;29.33
46506;BME280;32220;49.808;9.968;2023-08-08T10:24:33;98888.63;;;29.22;30.25
46506;BME280;32220;49.808;9.968;2023-08-08T10:27:03;98899.97;;;29.39;29.88
46506;BME280;32220;49.808;9.968;2023-08-08T10:29:32;98901.19;;;29.43;29.36
46506;BME280;32220;49.808;9.968;2023-08-08T10:32:01;98902.69;;;29.39;29.05
46506;BME280;32220;49.808;9.968;2023-08-08T10:34:39;98902.03;;;29.37;28.70
46506;BME280;32220;49.808;9.968;2023-08-08T10:37:10;98893.44;;;29.33;29.65
46506;BME280;32220;49.808;9.968;2023-08-08T10:39:50;98896.16;;;29.33;29.21
46506;BME280;32220;49.808;9.968;2023-08-08T10:42:18;98901.19;;;29.36;29.11
46506;BME280;32220;49.808;9.968;2023-08-08T10:44:51;98907.72;;;29.42;28.25
46506;BME280;32220;49.808;9.968;2023-08-08T10:47:21;98892.38;;;29.34;29.25
46506;BME280;32220;49.808;9.968;2023-08-08T10:49:58;98849.81;;;29.20;29.23
46506;BME280;32220;49.808;9.968;2023-08-08T10:52:26;98880.34;;;29.61;29.54
46506;BME280;32220;49.808;9.968;2023-08-08T10:54:55;98872.94;;;29.69;29.75
46506;BME280;32220;49.808;9.968;2023-08-08T10:57:24;98880.91;;;29.77;28.67
46506;BME280;32220;49.808;9.968;2023-08-08T10:59:52;98899.28;;;30.01;28.61
46506;BME280;32220;49.808;9.968;2023-08-08T11:02:20;98884.22;;;30.17;28.84
46506;BME280;32220;49.808;9.968;2023-08-08T11:04:48;98895.78;;;30.44;28.75
46506;BME280;32220;49.808;9.968;2023-08-08T11:07:17;98902.25;;;30.56;27.88
46506;BME280;32220;49.808;9.968;2023-08-08T11:09:45;98909.72;;;30.67;28.08
46506;BME280;32220;49.808;9.968;2023-08-08T11:12:16;98879.50;;;30.80;28.34
46506;BME280;32220;49.808;9.968;2023-08-08T11:14:43;98888.63;;;31.35;27.81
46506;BME280;32220;49.808;9.968;2023-08-08T11:17:11;98899.34;;;32.03;27.07
46506;BME280;32220;49.808;9.968;2023-08-08T11:19:40;98905.94;;;32.56;26.17
46506;BME280;32220;49.808;9.968;2023-08-08T11:22:11;98906.72;;;32.86;25.77
46506;BME280;32220;49.808;9.968;2023-08-08T11:24:40;98900.16;;;33.10;26.04
46506;BME280;32220;49.808;9.968;2023-08-08T11:27:07;98901.03;;;33.51;24.94
46506;BME280;32220;49.808;9.968;2023-08-08T11:29:34;98900.16;;;33.34;25.17
46506;BME280;32220;49.808;9.968;2023-08-08T11:32:02;98877.00;;;33.06;24.96
46506;BME280;32220;49.808;9.968;2023-08-08T11:34:31;98895.28;;;33.01;26.21
46506;BME280;32220;49.808;9.968;2023-08-08T11:36:59;98884.38;;;32.71;26.35
46506;BME280;32220;49.808;9.968;2023-08-08T11:39:28;98894.50;;;32.59;26.17
46506;BME280;32220;49.808;9.968;2023-08-08T11:41:57;98883.03;;;32.38;26.70
46506;BME280;32220;49.808;9.968;2023-08-08T11:44:25;98881.84;;;32.34;26.66
46506;BME280;32220;49.808;9.968;2023-08-08T11:46:52;98863.56;;;32.28;26.90
46506;BME280;32220;49.808;9.968;2023-08-08T11:49:20;98846.44;;;32.44;28.44
46506;BME280;32220;49.808;9.968;2023-08-08T11:51:47;98869.63;;;32.95;26.91
46506;BME280;32220;49.808;9.968;2023-08-08T11:54:15;98892.97;;;32.63;26.23
46506;BME280;32220;49.808;9.968;2023-08-08T11:56:43;98891.56;;;32.72;26.07
46506;BME280;32220;49.808;9.968;2023-08-08T11:59:12;98848.25;;;32.39;26.73
46506;BME280;32220;49.808;9.968;2023-08-08T12:01:41;98881.03;;;33.39;26.71
46506;BME280;32220;49.808;9.968;2023-08-08T12:04:08;98883.13;;;34.17;24.55
46506;BME280;32220;49.808;9.968;2023-08-08T12:06:37;98891.38;;;34.45;23.85
46506;BME280;32220;49.808;9.968;2023-08-08T12:09:05;98890.03;;;34.98;24.01
46506;BME280;32220;49.808;9.968;2023-08-08T12:11:34;98898.63;;;35.40;22.73
46506;BME280;32220;49.808;9.968;2023-08-08T12:14:03;98899.59;;;35.51;23.85
46506;BME280;32220;49.808;9.968;2023-08-08T12:16:32;98905.13;;;34.96;23.88
46506;BME280;32220;49.808;9.968;2023-08-08T12:19:01;98901.50;;;34.28;23.98
46506;BME280;32220;49.808;9.968;2023-08-08T12:21:28;98910.47;;;33.55;24.30
46506;BME280;32220;49.808;9.968;2023-08-08T12:23:56;98904.06;;;33.03;25.41
46506;BME280;32220;49.808;9.968;2023-08-08T12:26:24;98879.25;;;32.51;26.33
46506;BME280;32220;49.808;9.968;2023-08-08T12:28:51;98901.94;;;32.28;25.16
46506;BME280;32220;49.808;9.968;2023-08-08T12:31:20;98886.56;;;31.86;27.34
46506;BME280;32220;49.808;9.968;2023-08-08T12:33:49;98874.78;;;31.49;26.79
46506;BME280;32220;49.808;9.968;2023-08-08T12:36:16;98879.91;;;31.27;26.87
46506;BME280;32220;49.808;9.968;2023-08-08T12:38:44;98878.06;;;31.21;27.60
46506;BME280;32220;49.808;9.968;2023-08-08T12:41:12;98855.44;;;31.14;27.77
46506;BME280;32220;49.808;9.968;2023-08-08T12:43:40;98870.53;;;31.34;28.04
46506;BME280;32220;49.808;9.968;2023-08-08T12:46:07;98865.91;;;31.17;28.54
46506;BME280;32220;49.808;9.968;2023-08-08T12:48:35;98846.19;;;30.90;28.73
46506;BME280;32220;49.808;9.968;2023-08-08T12:51:04;98869.75;;;30.91;28.32
46506;BME280;32220;49.808;9.968;2023-08-08T12:53:33;98865.88;;;30.98;28.57
46506;BME280;32220;49.808;9.968;2023-08-08T12:56:01;98868.34;;;31.25;28.37
46506;BME280;32220;49.808;9.968;2023-08-08T12:58:28;98879.59;;;31.35;27.63
46506;BME280;32220;49.808;9.968;2023-08-08T13:00:56;98875.13;;;31.22;27.27
46506;BME280;32220;49.808;9.968;2023-08-08T13:03:23;98828.53;;;30.67;27.75
46506;BME280;32220;49.808;9.968;2023-08-08T13:05:51;98863.34;;;30.79;28.04